Time;durP1;ratioP1;P1;durP2;ratioP2;P2;SDS_P1;SDS_P2;PMS_P1;PMS_P2;Temp;Humidity;BMP_temperature;BMP_pressure;BME280_temperature;BME280_humidity;BME280_pressure;Samples;Min_cycle;Max_cycle;Signal;HPM_P1;HPM_P2
2022/06/13 00:01:19;;;;;;;16.30;5.43;;;12.30;99.90;;;;;;4984972;28;20112;-74
2022/06/13 00:03:46;;;;;;;13.02;5.38;;;12.20;99.90;;;;;;4999206;28;20077;-73
2022/06/13 00:06:12;;;;;;;15.27;5.65;;;12.20;99.90;;;;;;4989073;28;20057;-74
2022/06/13 00:08:38;;;;;;;18.90;5.60;;;12.20;99.90;;;;;;5001655;28;20048;-74
2022/06/13 00:11:11;;;;;;;16.50;5.97;;;12.20;99.90;;;;;;5001298;28;20050;-74
2022/06/13 00:13:38;;;;;;;20.48;5.93;;;12.10;99.90;;;;;;5001662;28;20053;-74
2022/06/13 00:16:04;;;;;;;16.48;6.65;;;12.10;99.90;;;;;;5002090;28;20064;-74
2022/06/13 00:18:30;;;;;;;16.30;6.03;;;12.10;99.90;;;;;;4990366;28;20073;-74
2022/06/13 00:20:56;;;;;;;18.00;5.88;;;12.10;99.90;;;;;;4970594;28;20410;-74
2022/06/13 00:23:22;;;;;;;14.70;5.93;;;12.10;99.90;;;;;;4981922;28;20138;-74
2022/06/13 00:25:48;;;;;;;14.90;5.43;;;12.00;99.90;;;;;;4978251;28;20058;-74
2022/06/13 00:28:14;;;;;;;20.10;5.50;;;12.00;99.90;;;;;;4967934;28;20045;-74
2022/06/13 00:30:40;;;;;;;20.27;5.65;;;12.00;99.90;;;;;;4981009;28;20474;-73
2022/06/13 00:33:06;;;;;;;18.83;5.70;;;12.00;99.90;;;;;;4982616;28;20499;-74
2022/06/13 00:35:32;;;;;;;17.65;5.93;;;12.00;99.90;;;;;;4983588;28;20096;-74
2022/06/13 00:37:57;;;;;;;20.35;5.70;;;12.10;99.90;;;;;;4998613;28;20045;-74
2022/06/13 00:40:23;;;;;;;18.38;6.05;;;12.10;99.90;;;;;;4966236;28;20046;-74
2022/06/13 00:42:49;;;;;;;13.52;5.50;;;12.10;99.90;;;;;;5004281;28;20042;-74
2022/06/13 00:45:20;;;;;;;17.77;6.18;;;12.10;99.90;;;;;;4986062;28;20885;-75
2022/06/13 00:47:49;;;;;;;19.13;6.40;;;12.10;99.90;;;;;;4999658;28;20037;-75
2022/06/13 00:50:20;;;;;;;19.83;5.90;;;12.20;99.90;;;;;;4983765;28;20128;-75
2022/06/13 00:53:12;;;;;;;14.60;6.87;;;12.20;99.90;;;;;;5000196;28;20070;-75
2022/06/13 00:55:47;;;;;;;16.30;5.65;;;12.20;99.90;;;;;;5002965;28;20501;-75
2022/06/13 00:58:13;;;;;;;20.20;6.82;;;12.30;99.90;;;;;;4986363;28;20061;-75
2022/06/13 01:00:41;;;;;;;17.63;5.07;;;12.30;99.90;;;;;;4967463;28;20125;-75
2022/06/13 01:03:07;;;;;;;13.70;5.68;;;12.30;99.90;;;;;;4968560;28;20034;-75
2022/06/13 01:05:40;;;;;;;16.67;6.30;;;12.30;99.90;;;;;;4986870;28;20052;-74
2022/06/13 01:08:08;;;;;;;16.85;6.10;;;12.30;99.90;;;;;;4998793;28;20532;-75
2022/06/13 01:13:22;;;;;;;18.02;6.20;;;12.30;99.90;;;;;;4987085;28;20415;-74
2022/06/13 01:16:11;;;;;;;20.55;6.68;;;12.30;99.90;;;;;;4976805;28;20057;-75
2022/06/13 01:18:55;;;;;;;19.40;6.82;;;12.30;99.90;;;;;;5001343;28;20104;-74
2022/06/13 01:21:40;;;;;;;18.88;6.18;;;12.30;99.90;;;;;;5005948;28;20235;-74
2022/06/13 01:24:33;;;;;;;19.38;6.53;;;12.20;99.90;;;;;;5002698;28;20037;-73
2022/06/13 01:27:13;;;;;;;18.08;6.80;;;12.20;99.90;;;;;;5003698;28;20046;-74
2022/06/13 01:29:58;;;;;;;21.63;6.75;;;12.20;99.90;;;;;;4984801;28;20049;-74
2022/06/13 01:32:51;;;;;;;15.18;5.95;;;12.20;99.90;;;;;;4983712;28;20579;-73
2022/06/13 01:35:28;;;;;;;19.75;7.28;;;12.10;99.90;;;;;;5005434;28;20042;-74
2022/06/13 01:38:15;;;;;;;18.17;6.30;;;12.10;99.90;;;;;;4981418;28;20054;-74
2022/06/13 01:41:04;;;;;;;15.75;5.97;;;12.20;99.90;;;;;;5002942;28;20034;-74
2022/06/13 01:44:02;;;;;;;24.98;7.18;;;12.10;99.90;;;;;;5001902;28;20042;-74
2022/06/13 01:46:45;;;;;;;24.85;7.60;;;12.20;99.90;;;;;;5009542;28;20050;-74
2022/06/13 01:49:51;;;;;;;17.45;6.47;;;12.20;99.90;;;;;;5002387;28;20585;-75
2022/06/13 01:52:31;;;;;;;18.30;7.38;;;12.20;99.90;;;;;;5002396;28;20137;-74
2022/06/13 01:54:56;;;;;;;14.77;5.95;;;12.20;99.90;;;;;;5000596;28;20054;-74
2022/06/13 01:58:10;;;;;;;17.92;6.53;;;12.10;99.90;;;;;;4984222;28;20049;-74
2022/06/13 02:00:39;;;;;;;20.40;6.65;;;12.10;99.90;;;;;;4928064;29;20039;-74
2022/06/13 02:03:19;;;;;;;17.90;7.05;;;12.20;99.90;;;;;;4988509;28;20046;-74
2022/06/13 02:06:13;;;;;;;20.30;6.77;;;12.20;99.90;;;;;;5003692;28;20104;-75
2022/06/13 02:08:50;;;;;;;20.42;7.72;;;12.20;99.90;;;;;;4998429;28;20554;-74
2022/06/13 02:11:34;;;;;;;18.63;6.95;;;12.20;99.90;;;;;;5008395;28;20053;-74
2022/06/13 02:14:18;;;;;;;19.58;6.65;;;12.20;99.90;;;;;;5002000;28;20544;-74
2022/06/13 02:17:04;;;;;;;19.75;7.95;;;12.20;99.90;;;;;;5001501;28;20045;-74
2022/06/13 02:19:55;;;;;;;23.38;7.75;;;12.30;99.90;;;;;;4989160;28;20101;-74
2022/06/13 02:22:43;;;;;;;18.93;7.20;;;12.20;99.90;;;;;;4975143;28;20149;-74
2022/06/13 02:25:12;;;;;;;23.05;8.15;;;12.30;99.90;;;;;;4975406;28;20129;-75
2022/06/13 02:27:38;;;;;;;17.90;7.55;;;12.40;99.90;;;;;;4987570;28;20041;-74
2022/06/13 02:30:09;;;;;;;19.48;6.60;;;12.40;99.90;;;;;;4972256;28;20073;-74
2022/06/13 02:32:48;;;;;;;28.07;7.87;;;12.40;99.90;;;;;;4989614;28;20045;-74
2022/06/13 02:36:13;;;;;;;23.38;8.40;;;12.40;99.90;;;;;;4988864;28;20422;-75
2022/06/13 02:38:46;;;;;;;27.98;8.10;;;12.40;99.90;;;;;;4957240;28;20078;-75
2022/06/13 02:41:17;;;;;;;17.42;7.15;;;12.50;99.90;;;;;;4955522;28;20070;-74
2022/06/13 02:43:59;;;;;;;21.90;7.47;;;12.50;99.90;;;;;;4976368;28;20449;-74
2022/06/13 02:46:38;;;;;;;21.02;7.93;;;12.50;99.90;;;;;;4994719;28;20128;-75
2022/06/13 02:49:23;;;;;;;24.98;8.48;;;12.50;99.90;;;;;;4989576;28;20042;-75
2022/06/13 02:51:58;;;;;;;20.70;8.00;;;12.50;99.90;;;;;;5002792;28;20088;-74
2022/06/13 02:54:33;;;;;;;20.50;7.82;;;12.50;99.90;;;;;;4984126;28;20053;-74
2022/06/13 03:00:03;;;;;;;20.88;7.32;;;12.50;99.90;;;;;;5001975;28;20046;-75
2022/06/13 03:02:57;;;;;;;22.10;7.63;;;12.60;99.90;;;;;;4990139;28;20565;-74
2022/06/13 03:05:32;;;;;;;18.83;7.38;;;12.60;99.90;;;;;;4948021;28;20091;-75
2022/06/13 03:08:24;;;;;;;23.48;8.23;;;12.60;99.90;;;;;;4998543;28;20050;-75
2022/06/13 03:11:16;;;;;;;19.83;7.55;;;12.60;99.90;;;;;;5004323;28;20041;-74
2022/06/13 03:14:03;;;;;;;21.08;7.95;;;12.60;99.90;;;;;;5005019;28;20042;-75
2022/06/13 03:16:36;;;;;;;21.40;7.20;;;12.60;99.90;;;;;;4987660;28;20062;-75
2022/06/13 03:19:16;;;;;;;18.77;6.50;;;12.60;99.90;;;;;;5004505;28;20113;-75
2022/06/13 03:21:51;;;;;;;17.23;6.60;;;12.60;99.90;;;;;;4983305;28;20046;-75
2022/06/13 03:24:19;;;;;;;17.88;6.80;;;12.60;99.90;;;;;;4995932;28;20049;-75
2022/06/13 03:26:54;;;;;;;19.98;7.05;;;12.50;99.90;;;;;;4989287;28;20042;-75
2022/06/13 03:29:23;;;;;;;18.48;7.68;;;12.50;99.90;;;;;;4988232;28;20383;-75
2022/06/13 03:32:12;;;;;;;17.75;6.78;;;12.50;99.90;;;;;;4987669;28;20050;-75
2022/06/13 03:34:43;;;;;;;19.85;6.40;;;12.50;99.90;;;;;;4984606;28;20087;-74
2022/06/13 03:37:23;;;;;;;15.55;6.03;;;12.50;99.90;;;;;;4974047;28;20408;-75
2022/06/13 03:39:51;;;;;;;18.92;6.30;;;12.50;99.90;;;;;;4987984;28;20050;-74
2022/06/13 03:42:29;;;;;;;16.95;6.07;;;12.50;99.90;;;;;;4968552;28;20136;-74
2022/06/13 03:45:04;;;;;;;16.73;5.72;;;12.50;99.90;;;;;;4986501;28;20045;-75
2022/06/13 03:47:36;;;;;;;19.25;5.75;;;12.50;99.90;;;;;;4968295;28;20049;-75
2022/06/13 03:50:11;;;;;;;17.67;5.57;;;12.50;99.90;;;;;;5007435;28;20107;-74
2022/06/13 03:52:42;;;;;;;14.98;4.68;;;12.50;99.90;;;;;;4995627;28;20069;-74
2022/06/13 03:55:30;;;;;;;16.08;6.10;;;12.60;99.90;;;;;;4996500;28;20128;-75
2022/06/13 03:58:04;;;;;;;21.38;6.25;;;12.50;99.90;;;;;;4989965;28;20077;-75
2022/06/13 04:00:38;;;;;;;13.65;4.80;;;12.60;99.90;;;;;;4987475;28;20442;-75
2022/06/13 04:03:05;;;;;;;16.77;4.95;;;12.60;99.90;;;;;;4989160;28;20042;-75
2022/06/13 04:05:36;;;;;;;15.60;4.32;;;12.70;99.90;;;;;;4988657;28;20132;-74
2022/06/13 04:08:03;;;;;;;;;;;12.70;99.90;;;;;;4971224;28;20097;-74
2022/06/13 04:10:36;;;;;;;13.73;4.45;;;12.70;99.90;;;;;;5001841;28;19926;-74
2022/06/13 04:13:02;;;;;;;11.93;3.97;;;12.70;99.90;;;;;;4995958;28;20054;-75
2022/06/13 04:15:52;;;;;;;15.00;4.32;;;12.90;99.90;;;;;;4971747;28;20107;-75
2022/06/13 04:18:27;;;;;;;11.90;3.53;;;12.70;99.90;;;;;;4996577;28;20582;-74
2022/06/13 04:21:17;;;;;;;15.18;3.85;;;12.90;99.90;;;;;;4995960;28;20053;-76
2022/06/13 04:24:11;;;;;;;10.63;3.67;;;12.90;99.90;;;;;;4986759;28;20563;-75
2022/06/13 04:26:40;;;;;;;12.00;3.55;;;12.90;99.90;;;;;;4989545;28;20051;-75
2022/06/13 04:29:25;;;;;;;12.50;3.15;;;13.00;99.90;;;;;;4989700;28;20042;-75
2022/06/13 04:31:56;;;;;;;14.60;3.35;;;13.00;99.90;;;;;;5004514;28;20080;-74
2022/06/13 04:34:27;;;;;;;11.13;3.10;;;13.10;99.90;;;;;;4987706;28;20525;-75
2022/06/13 04:36:53;;;;;;;9.82;2.97;;;13.20;99.90;;;;;;4970687;28;20049;-74
2022/06/13 04:39:27;;;;;;;11.63;3.67;;;13.40;99.90;;;;;;4983175;28;20130;-74
2022/06/13 04:41:55;;;;;;;10.82;3.10;;;13.50;99.90;;;;;;4984845;28;20053;-74
2022/06/13 04:44:26;;;;;;;11.27;3.03;;;14.60;99.90;;;;;;4979103;28;20560;-73
2022/06/13 04:46:54;;;;;;;13.70;2.92;;;15.90;99.90;;;;;;4983068;28;20165;-74
2022/06/13 04:49:55;;;;;;;11.98;2.65;;;16.30;99.90;;;;;;4966393;28;20601;-74
2022/06/13 04:52:31;;;;;;;11.85;3.38;;;16.10;99.90;;;;;;4986072;28;20054;-73
2022/06/13 04:55:02;;;;;;;10.63;2.83;;;15.70;99.90;;;;;;4992125;28;20042;-74
2022/06/13 04:57:29;;;;;;;11.98;3.10;;;15.30;99.90;;;;;;4984070;28;20049;-74
2022/06/13 04:59:56;;;;;;;11.43;3.15;;;14.90;99.90;;;;;;4986665;28;20496;-75
2022/06/13 05:02:32;;;;;;;7.70;2.50;;;14.60;99.90;;;;;;4983267;28;20053;-74
2022/06/13 05:04:58;;;;;;;9.85;2.50;;;14.20;99.90;;;;;;4985534;28;20505;-75
2022/06/13 05:07:24;;;;;;;9.88;2.20;;;14.00;99.90;;;;;;4999795;28;20141;-76
2022/06/13 05:10:00;;;;;;;8.02;1.80;;;13.90;99.90;;;;;;4968974;28;20076;-75
2022/06/13 05:12:42;;;;;;;11.57;2.20;;;13.70;99.90;;;;;;4999495;28;20064;-75
2022/06/13 05:15:10;;;;;;;9.98;1.70;;;13.80;99.90;;;;;;4993938;28;20081;-75
2022/06/13 05:17:58;;;;;;;6.88;1.60;;;14.10;99.90;;;;;;5001649;28;20062;-75
2022/06/13 05:20:39;;;;;;;11.35;1.70;;;14.30;99.90;;;;;;5003406;28;20053;-75
2022/06/13 05:23:42;;;;;;;6.43;1.40;;;14.40;99.90;;;;;;5000306;28;21162;-75
2022/06/13 05:26:08;;;;;;;4.55;1.35;;;14.50;99.90;;;;;;5009341;28;20049;-74
2022/06/13 05:28:36;;;;;;;3.88;1.10;;;14.60;99.90;;;;;;4999676;28;20059;-74
2022/06/13 05:31:18;;;;;;;4.03;1.17;;;15.60;99.90;;;;;;4983521;28;20050;-73
2022/06/13 05:33:45;;;;;;;4.25;1.02;;;15.60;99.90;;;;;;4981664;28;20074;-73
2022/06/13 05:36:15;;;;;;;5.53;1.80;;;15.50;99.90;;;;;;5002935;28;20046;-73
2022/06/13 05:38:48;;;;;;;5.38;1.30;;;15.40;99.90;;;;;;5007891;28;20358;-74
2022/06/13 05:41:14;;;;;;;5.65;1.30;;;15.30;99.90;;;;;;4986963;28;20046;-73
2022/06/13 05:43:40;;;;;;;3.10;1.05;;;15.10;99.90;;;;;;5002112;28;20080;-73
2022/06/13 05:46:08;;;;;;;7.55;1.30;;;15.00;99.90;;;;;;4997096;28;20076;-73
2022/06/13 05:48:40;;;;;;;5.45;1.10;;;14.90;99.90;;;;;;4988323;28;20061;-73
2022/06/13 05:51:06;;;;;;;6.43;1.20;;;15.00;99.90;;;;;;4985254;28;20503;-73
2022/06/13 05:53:31;;;;;;;4.88;1.10;;;15.00;99.90;;;;;;4987465;28;20056;-73
2022/06/13 05:56:00;;;;;;;4.20;1.05;;;15.10;99.90;;;;;;4991885;28;20386;-74
2022/06/13 05:58:26;;;;;;;4.60;1.10;;;16.50;99.90;;;;;;5009337;28;20956;-73
2022/06/13 06:01:01;;;;;;;3.55;1.15;;;18.20;99.90;;;;;;4991946;28;20116;-73
2022/06/13 06:03:27;;;;;;;4.18;1.30;;;20.20;99.90;;;;;;4991841;28;20046;-72
2022/06/13 06:05:54;;;;;;;6.22;1.13;;;21.90;99.90;;;;;;4989620;28;20049;-73
2022/06/13 06:08:24;;;;;;;5.55;1.20;;;23.00;99.90;;;;;;4990578;28;21177;-73
2022/06/13 06:10:54;;;;;;;7.50;1.40;;;23.90;99.90;;;;;;4993109;28;20057;-73
2022/06/13 06:13:20;;;;;;;6.10;1.20;;;24.70;99.90;;;;;;4991935;28;20515;-73
2022/06/13 06:15:48;;;;;;;4.50;1.17;;;24.60;99.90;;;;;;5013319;28;20068;-73
2022/06/13 06:18:15;;;;;;;7.78;1.50;;;25.30;99.90;;;;;;5002931;28;20064;-74
2022/06/13 06:20:41;;;;;;;7.72;1.50;;;24.40;99.90;;;;;;5001800;28;20458;-74
2022/06/13 06:23:09;;;;;;;6.95;1.55;;;23.40;99.90;;;;;;4998072;28;20107;-74
2022/06/13 06:25:39;;;;;;;6.72;1.40;;;22.10;99.90;;;;;;4998404;28;20168;-74
2022/06/13 06:28:06;;;;;;;6.75;1.55;;;20.90;99.90;;;;;;5008195;28;20073;-74
2022/06/13 06:30:33;;;;;;;6.35;1.30;;;20.10;99.90;;;;;;4984907;28;20050;-74
2022/06/13 06:33:00;;;;;;;7.45;1.45;;;19.50;99.90;;;;;;5003740;28;20072;-74
2022/06/13 06:35:29;;;;;;;8.82;1.70;;;19.00;99.90;;;;;;4999150;28;20526;-74
2022/06/13 06:37:55;;;;;;;7.80;1.58;;;18.50;99.90;;;;;;4995219;28;20060;-75
2022/06/13 06:40:23;;;;;;;7.95;1.60;;;18.40;99.90;;;;;;5001560;28;20077;-74
2022/06/13 06:42:50;;;;;;;11.88;2.78;;;18.20;99.90;;;;;;5001340;28;20045;-75
2022/06/13 06:45:17;;;;;;;7.30;1.58;;;18.10;99.90;;;;;;5002482;28;20091;-75
2022/06/13 06:47:43;;;;;;;9.48;1.60;;;17.90;99.90;;;;;;4999892;28;20165;-74
2022/06/13 06:50:16;;;;;;;8.20;1.40;;;17.60;99.90;;;;;;4977417;28;20077;-74
2022/06/13 06:52:43;;;;;;;4.28;1.75;;;17.40;99.90;;;;;;5011183;28;20053;-75
2022/06/13 07:00:45;;;;;;;5.85;1.20;;;16.80;99.90;;;;;;4992495;28;20640;-74
2022/06/13 07:03:11;;;;;;;7.90;1.40;;;16.60;99.90;;;;;;4980140;28;20116;-74
2022/06/13 07:05:37;;;;;;;8.20;1.45;;;16.40;99.90;;;;;;5013441;28;20042;-75
2022/06/13 07:08:03;;;;;;;13.13;2.47;;;16.20;99.90;;;;;;4979634;28;20111;-74
2022/06/13 07:10:29;;;;;;;6.05;1.60;;;16.10;99.90;;;;;;4995291;28;20340;-74
2022/06/13 07:12:55;;;;;;;11.32;1.90;;;16.20;99.90;;;;;;4995790;28;20058;-75
2022/06/13 07:15:21;;;;;;;8.00;1.65;;;16.40;99.90;;;;;;5013145;28;20062;-75
2022/06/13 07:17:48;;;;;;;11.25;2.13;;;16.80;99.90;;;;;;4995635;28;20061;-74
2022/06/13 07:20:15;;;;;;;10.07;1.92;;;17.30;99.90;;;;;;4996588;28;20116;-73
2022/06/13 07:22:52;;;;;;;10.70;1.70;;;17.70;99.90;;;;;;4995343;28;20037;-73
2022/06/13 07:25:21;;;;;;;8.40;1.70;;;17.50;99.90;;;;;;4992405;28;20069;-73
2022/06/13 07:27:47;;;;;;;11.38;1.60;;;17.10;99.90;;;;;;4997864;28;20049;-73
2022/06/13 07:30:16;;;;;;;11.18;1.60;;;16.80;99.90;;;;;;4984847;28;20046;-73
2022/06/13 07:32:43;;;;;;;8.85;1.65;;;16.50;99.90;;;;;;4992922;28;20033;-73
2022/06/13 07:35:12;;;;;;;9.13;1.77;;;16.30;99.90;;;;;;4976733;28;20050;-74
2022/06/13 07:40:23;;;;;;;8.05;1.80;;;16.30;99.90;;;;;;5013738;28;20053;-73
2022/06/13 07:42:51;;;;;;;9.98;2.10;;;16.80;99.90;;;;;;4997615;28;20508;-73
2022/06/13 07:45:24;;;;;;;8.70;1.48;;;17.50;99.90;;;;;;4999357;28;20080;-73
2022/06/13 07:47:50;;;;;;;11.05;1.88;;;18.20;99.90;;;;;;4977852;28;20041;-73
2022/06/13 07:50:20;;;;;;;9.00;1.60;;;18.50;99.90;;;;;;4997690;28;20564;-73
2022/06/13 07:52:46;;;;;;;11.57;2.72;;;18.40;99.90;;;;;;4994641;28;20477;-73
2022/06/13 07:55:12;;;;;;;6.10;1.70;;;18.00;99.90;;;;;;4982392;28;20038;-74
2022/06/13 07:57:38;;;;;;;6.05;1.45;;;17.60;99.90;;;;;;4992731;28;20069;-73
2022/06/13 08:00:07;;;;;;;7.68;1.58;;;17.40;99.90;;;;;;4990613;28;20046;-73
2022/06/13 08:02:34;;;;;;;7.45;1.25;;;17.70;99.90;;;;;;4993433;28;20111;-74
2022/06/13 08:05:00;;;;;;;9.82;1.70;;;18.30;99.90;;;;;;4996020;28;20069;-74
2022/06/13 08:07:26;;;;;;;7.35;1.40;;;18.80;99.90;;;;;;5010430;28;20543;-73
2022/06/13 08:09:52;;;;;;;9.60;1.17;;;18.80;99.90;;;;;;4995073;28;20053;-74
2022/06/13 08:12:19;;;;;;;9.45;1.42;;;18.80;99.90;;;;;;4991139;28;20117;-74
2022/06/13 08:14:47;;;;;;;7.18;1.17;;;19.20;99.90;;;;;;4992208;28;20050;-74
2022/06/13 08:17:15;;;;;;;6.80;1.30;;;19.50;99.90;;;;;;4990980;28;20049;-75
2022/06/13 08:19:41;;;;;;;4.07;1.20;;;19.90;99.90;;;;;;4996274;28;20054;-74
2022/06/13 08:22:07;;;;;;;8.10;1.23;;;20.30;99.90;;;;;;4995903;28;20588;-74
2022/06/13 08:24:34;;;;;;;6.82;1.20;;;20.70;99.90;;;;;;4992628;28;20054;-74
2022/06/13 08:27:00;;;;;;;7.05;1.50;;;20.90;99.90;;;;;;4992121;28;20556;-75
2022/06/13 08:29:26;;;;;;;8.52;1.42;;;20.90;99.90;;;;;;4995695;28;20049;-73
2022/06/13 08:31:52;;;;;;;7.75;1.42;;;20.70;99.90;;;;;;4981802;28;20062;-75
2022/06/13 08:34:18;;;;;;;6.47;1.45;;;20.60;99.90;;;;;;4995439;28;20404;-74
2022/06/13 08:36:43;;;;;;;7.40;1.33;;;20.80;99.90;;;;;;5012078;28;20046;-75
2022/06/13 08:39:09;;;;;;;6.97;1.52;;;21.00;99.90;;;;;;4997175;28;21979;-74
2022/06/13 08:42:01;;;;;;;7.40;1.45;;;21.20;99.90;;;;;;4996186;28;20045;-74
2022/06/13 08:45:21;;;;;;;8.25;1.50;;;21.50;99.90;;;;;;4994556;28;20057;-74
2022/06/13 08:48:14;;;;;;;10.45;1.70;;;21.60;99.90;;;;;;4977403;28;20046;-74
2022/06/13 08:50:58;;;;;;;5.95;1.58;;;21.00;99.90;;;;;;4945722;28;20049;-74
2022/06/13 08:53:30;;;;;;;8.57;1.55;;;20.60;99.90;;;;;;5007669;28;20192;-74
2022/06/13 08:56:05;;;;;;;8.98;1.80;;;20.90;99.90;;;;;;5011614;28;20171;-74
2022/06/13 08:58:37;;;;;;;6.35;1.60;;;21.20;99.90;;;;;;5001305;28;20521;-75
2022/06/13 09:01:09;;;;;;;7.88;1.80;;;21.30;99.90;;;;;;4998577;28;20734;-74
2022/06/13 09:03:43;;;;;;;8.02;1.70;;;21.10;99.90;;;;;;5001089;28;20042;-74
2022/06/13 09:06:21;;;;;;;7.03;1.70;;;21.10;99.90;;;;;;4982960;28;20438;-71
2022/06/13 09:08:53;;;;;;;8.77;1.73;;;21.10;99.90;;;;;;5001999;28;20531;-72
2022/06/13 09:11:24;;;;;;;7.95;1.65;;;20.70;99.90;;;;;;4998003;28;20050;-72
2022/06/13 09:14:02;;;;;;;8.75;1.73;;;20.60;99.90;;;;;;5002508;28;20116;-71
2022/06/13 09:16:33;;;;;;;12.23;2.28;;;20.80;99.90;;;;;;4999897;28;20080;-74
2022/06/13 09:19:15;;;;;;;;;;;20.60;99.90;;;;;;4965646;28;20289;-75
2022/06/13 09:21:49;;;;;;;;;;;20.10;99.90;;;;;;4998019;28;19925;-75
2022/06/13 09:24:35;;;;;;;8.38;2.00;;;19.60;99.90;;;;;;5001990;28;19926;-74
2022/06/13 09:27:09;;;;;;;12.13;2.22;;;19.50;99.90;;;;;;4986390;28;20176;-75
2022/06/13 09:30:10;;;;;;;11.43;2.42;;;19.80;99.90;;;;;;4976502;28;20042;-76
2022/06/13 09:33:08;;;;;;;8.73;1.98;;;20.30;99.90;;;;;;4961809;28;20324;-75
2022/06/13 09:35:43;;;;;;;10.38;1.83;;;20.80;99.90;;;;;;4949605;28;20050;-74
2022/06/13 09:38:28;;;;;;;9.45;1.95;;;21.00;99.90;;;;;;4979252;28;20050;-74
2022/06/13 09:41:03;;;;;;;10.23;1.77;;;20.70;99.90;;;;;;4978390;28;20057;-75
2022/06/13 09:43:59;;;;;;;10.63;2.00;;;20.10;99.90;;;;;;4978862;28;20057;-74
2022/06/13 09:46:49;;;;;;;9.30;2.03;;;19.60;99.90;;;;;;4992444;28;20466;-74
2022/06/13 09:49:19;;;;;;;7.80;1.75;;;19.50;99.90;;;;;;4992799;28;20069;-74
2022/06/13 09:52:35;;;;;;;8.52;1.83;;;19.80;99.90;;;;;;4974623;28;20057;-74
2022/06/13 09:55:01;;;;;;;7.43;1.58;;;20.40;99.90;;;;;;4944794;28;20054;-73
2022/06/13 09:58:13;;;;;;;10.32;2.00;;;20.60;99.90;;;;;;4982531;28;20095;-73
2022/06/13 10:01:21;;;;;;;8.60;1.55;;;20.10;99.90;;;;;;4988646;28;21290;-73
2022/06/13 10:04:29;;;;;;;10.77;1.65;;;19.30;99.90;;;;;;4958495;28;20045;-74
2022/06/13 10:07:12;;;;;;;10.35;1.83;;;18.80;99.90;;;;;;4944049;28;20057;-74
2022/06/13 10:10:15;;;;;;;6.85;1.60;;;18.90;99.90;;;;;;4985399;28;20490;-74
2022/06/13 10:12:52;;;;;;;11.60;2.13;;;19.60;99.90;;;;;;4995402;28;20410;-74
2022/06/13 10:15:42;;;;;;;8.80;1.80;;;20.10;99.90;;;;;;5001319;28;20057;-74
2022/06/13 10:18:29;;;;;;;11.43;2.13;;;20.10;99.90;;;;;;4981300;28;20560;-75
2022/06/13 10:21:08;;;;;;;9.65;1.70;;;19.70;99.90;;;;;;4970839;28;20065;-75
2022/06/13 10:23:39;;;;;;;11.43;2.15;;;19.30;99.90;;;;;;4969209;28;20042;-78
2022/06/13 10:26:11;;;;;;;12.52;1.90;;;19.00;99.90;;;;;;4988783;28;20049;-77
2022/06/13 10:29:15;;;;;;;9.00;1.95;;;18.80;99.90;;;;;;4983283;28;20042;-77
2022/06/13 10:32:06;;;;;;;8.65;1.77;;;18.60;99.90;;;;;;4972741;28;20099;-75
2022/06/13 10:35:09;;;;;;;9.63;1.88;;;19.00;99.90;;;;;;4960562;28;20042;-76
2022/06/13 10:38:07;;;;;;;10.88;1.75;;;19.50;99.90;;;;;;4989688;28;20325;-76
2022/06/13 10:40:33;;;;;;;10.80;1.83;;;19.30;99.90;;;;;;4961012;28;20054;-77
2022/06/13 10:43:00;;;;;;;7.25;1.40;;;19.00;99.90;;;;;;4985514;28;20151;-75
2022/06/13 10:45:26;;;;;;;8.98;2.50;;;18.70;99.90;;;;;;4998946;28;20553;-74
2022/06/13 10:47:59;;;;;;;8.40;2.05;;;18.60;99.90;;;;;;4974232;28;20195;-75
2022/06/13 10:50:32;;;;;;;9.75;2.33;;;18.80;99.90;;;;;;4999238;28;20121;-75
2022/06/13 10:53:08;;;;;;;9.45;2.08;;;19.00;99.90;;;;;;4999218;28;20080;-74
2022/06/13 10:55:41;;;;;;;11.68;2.25;;;19.00;99.90;;;;;;4975061;28;20811;-75
2022/06/13 10:58:28;;;;;;;12.45;2.63;;;19.00;99.90;;;;;;4974375;28;20077;-73
2022/06/13 11:01:19;;;;;;;10.77;2.38;;;18.90;99.90;;;;;;4967650;28;20140;-73
2022/06/13 11:04:17;;;;;;;9.05;2.47;;;18.60;99.90;;;;;;4973138;28;20037;-74
2022/06/13 11:06:45;;;;;;;9.60;2.10;;;18.40;99.90;;;;;;4979316;28;20136;-73
2022/06/13 11:09:25;;;;;;;13.32;2.22;;;18.20;99.90;;;;;;4976019;28;20077;-74
2022/06/13 11:12:01;;;;;;;15.65;2.50;;;18.20;99.90;;;;;;4975337;28;20533;-74
2022/06/13 11:22:37;;;;;;;12.85;2.78;;;18.50;99.90;;;;;;4974458;28;20038;-71
2022/06/13 11:23:08;;;;;;;8.00;2.17;;;18.60;99.90;;;;;;4997574;28;20104;-75
2022/06/13 11:25:36;;;;;;;7.95;2.03;;;18.30;99.90;;;;;;4996334;28;20343;-75
2022/06/13 11:28:14;;;;;;;13.52;2.40;;;18.20;99.90;;;;;;4979354;28;20144;-75
2022/06/13 11:30:50;;;;;;;8.95;1.65;;;18.00;99.90;;;;;;4981885;28;20052;-75
2022/06/13 11:33:32;;;;;;;8.75;2.13;;;18.00;99.90;;;;;;4984195;28;20129;-74
2022/06/13 11:36:01;;;;;;;11.70;2.35;;;18.30;99.90;;;;;;4963951;28;20041;-74
2022/06/13 11:38:36;;;;;;;10.10;2.25;;;18.40;99.90;;;;;;4964258;28;20077;-73
2022/06/13 11:41:06;;;;;;;9.30;1.98;;;18.40;99.90;;;;;;4964281;28;20052;-76
2022/06/13 11:43:46;;;;;;;10.85;2.00;;;18.30;99.90;;;;;;4992307;28;20042;-72
2022/06/13 11:46:26;;;;;;;8.35;1.70;;;18.20;99.90;;;;;;4997329;28;20102;-73
2022/06/13 11:48:53;;;;;;;9.65;1.88;;;18.00;99.90;;;;;;4993067;28;20414;-74
2022/06/13 11:51:25;;;;;;;9.90;2.10;;;17.90;99.90;;;;;;4975239;28;20058;-76
2022/06/13 11:53:58;;;;;;;12.27;2.30;;;17.70;99.90;;;;;;4998604;28;20049;-75
2022/06/13 11:56:30;;;;;;;10.02;2.10;;;17.60;99.90;;;;;;4974971;28;20042;-75
2022/06/13 11:59:00;;;;;;;12.90;2.30;;;17.50;99.90;;;;;;4969674;28;20053;-74
2022/06/13 12:01:37;;;;;;;12.60;2.53;;;17.50;99.90;;;;;;4985475;28;20058;-75
2022/06/13 12:04:14;;;;;;;10.23;2.08;;;17.50;99.90;;;;;;4984230;28;20084;-73
2022/06/13 12:06:46;;;;;;;9.70;1.95;;;17.50;99.90;;;;;;4984909;28;20042;-76
2022/06/13 12:09:33;;;;;;;9.40;1.85;;;17.40;99.90;;;;;;4992225;28;20073;-75
2022/06/13 12:12:02;;;;;;;13.00;2.00;;;17.40;99.90;;;;;;5002560;28;20517;-75
2022/06/13 12:14:30;;;;;;;11.27;2.00;;;17.50;99.90;;;;;;5000701;28;20077;-77
2022/06/13 12:17:08;;;;;;;9.98;2.00;;;17.60;99.90;;;;;;5002060;28;20080;-77
2022/06/13 12:19:52;;;;;;;10.85;2.30;;;17.80;99.90;;;;;;4967975;28;20957;-75
2022/06/13 12:22:32;;;;;;;12.80;2.13;;;17.90;99.90;;;;;;5000273;28;20060;-76
2022/06/13 12:25:21;;;;;;;12.63;2.55;;;18.00;99.90;;;;;;4999342;28;20045;-73
2022/06/13 12:28:03;;;;;;;15.68;2.50;;;17.80;99.90;;;;;;4978025;28;20101;-73
2022/06/13 12:30:38;;;;;;;10.40;2.35;;;17.50;99.90;;;;;;4977660;28;20556;-74
2022/06/13 12:33:18;;;;;;;8.20;2.00;;;17.40;99.90;;;;;;4980456;28;20053;-72
2022/06/13 12:36:26;;;;;;;8.57;1.75;;;17.40;99.90;;;;;;4977919;28;20073;-73
2022/06/13 12:39:20;;;;;;;9.98;2.30;;;17.30;99.90;;;;;;4981043;28;20313;-74
2022/06/13 12:41:57;;;;;;;12.65;2.20;;;17.60;99.90;;;;;;4979914;28;20042;-77
2022/06/13 12:44:27;;;;;;;9.93;2.17;;;17.80;99.90;;;;;;4964506;28;20303;-75
2022/06/13 12:47:15;;;;;;;12.90;2.38;;;17.90;99.90;;;;;;4976534;28;20294;-75
2022/06/13 12:50:22;;;;;;;8.57;1.80;;;18.00;99.90;;;;;;4991988;28;20141;-75
2022/06/13 12:52:54;;;;;;;10.52;2.70;;;18.10;99.90;;;;;;4973389;28;21600;-74
2022/06/13 12:55:33;;;;;;;12.45;1.90;;;18.20;99.90;;;;;;4986020;28;20168;-74
2022/06/13 12:58:20;;;;;;;9.65;1.65;;;18.10;99.90;;;;;;4992617;28;20164;-75
2022/06/13 13:00:50;;;;;;;10.27;1.75;;;18.10;99.90;;;;;;4977094;28;20058;-76
2022/06/13 13:03:34;;;;;;;12.40;1.98;;;18.00;99.90;;;;;;4956121;28;20053;-76
2022/06/13 13:06:12;;;;;;;9.05;2.10;;;18.20;99.90;;;;;;4997642;28;20041;-76
2022/06/13 13:09:04;;;;;;;8.48;1.48;;;18.30;99.90;;;;;;4991164;28;20499;-74
2022/06/13 13:11:49;;;;;;;8.07;1.63;;;18.40;99.90;;;;;;4976498;28;20053;-74
2022/06/13 13:14:26;;;;;;;7.10;1.20;;;18.50;99.90;;;;;;4995770;28;20378;-71
2022/06/13 13:17:21;;;;;;;8.85;1.77;;;18.30;99.90;;;;;;4992041;28;20049;-71
2022/06/13 13:19:54;;;;;;;7.50;1.40;;;18.20;99.90;;;;;;4950284;28;20502;-71
2022/06/13 13:22:40;;;;;;;7.30;1.40;;;18.10;99.90;;;;;;4992973;28;20406;-72
2022/06/13 13:25:14;;;;;;;7.85;1.35;;;18.00;99.90;;;;;;4996142;28;20991;-75
2022/06/13 13:28:15;;;;;;;7.72;1.30;;;17.90;99.90;;;;;;4960693;28;20491;-76
2022/06/13 13:31:05;;;;;;;7.40;1.48;;;17.80;99.90;;;;;;4941744;28;20053;-76
2022/06/13 13:33:45;;;;;;;7.80;1.20;;;17.80;99.90;;;;;;4970558;28;20099;-74
2022/06/13 13:36:19;;;;;;;7.80;1.17;;;17.80;99.90;;;;;;4971025;28;20116;-75
2022/06/13 13:38:49;;;;;;;6.75;1.30;;;17.80;99.90;;;;;;4958591;28;20507;-74
2022/06/13 13:41:22;;;;;;;7.53;1.25;;;17.80;99.90;;;;;;4967265;28;20046;-74
2022/06/13 13:44:04;;;;;;;7.30;1.60;;;18.00;99.90;;;;;;4974184;28;20053;-75
2022/06/13 13:47:02;;;;;;;7.47;1.60;;;18.40;99.90;;;;;;4971212;28;20099;-75
2022/06/13 13:49:39;;;;;;;7.57;1.50;;;18.70;99.90;;;;;;4936062;28;20506;-74